createdAt,value
2022-11-18T00:04:44.940Z,11.55
2022-11-18T00:09:46.700Z,11.82
2022-11-18T00:14:48.449Z,11.60
2022-11-18T00:19:51.562Z,11.64
2022-11-18T00:24:53.380Z,11.62
2022-11-18T00:29:55.200Z,11.53
2022-11-18T00:34:58.329Z,11.33
2022-11-18T00:40:00.054Z,11.43
2022-11-18T00:45:01.791Z,11.60
2022-11-18T00:50:05.859Z,11.26
2022-11-18T00:55:08.428Z,11.19
2022-11-18T01:00:10.783Z,11.06
2022-11-18T01:05:13.894Z,10.52
2022-11-18T01:10:16.418Z,10.62
2022-11-18T01:15:18.170Z,10.85
2022-11-18T01:20:21.278Z,11.32
2022-11-18T01:25:23.043Z,11.24
2022-11-18T01:30:24.832Z,11.60
2022-11-18T01:35:28.066Z,11.57
2022-11-18T01:40:29.804Z,11.53
2022-11-18T01:45:33.191Z,11.54
2022-11-18T01:50:38.487Z,11.46
2022-11-18T01:55:41.943Z,11.54
2022-11-18T02:00:43.688Z,11.72
2022-11-18T02:05:47.260Z,11.80
2022-11-18T02:10:49.037Z,11.41
2022-11-18T02:15:58.938Z,10.90
2022-11-18T02:21:08.533Z,11.26
2022-11-18T02:26:42.166Z,11.21
2022-11-18T02:31:48.191Z,11.55
2022-11-18T02:36:52.955Z,11.47
2022-11-18T02:41:54.727Z,11.40
2022-11-18T02:46:59.851Z,11.19
2022-11-18T02:52:01.769Z,11.12
2022-11-18T02:57:03.785Z,11.19
2022-11-18T03:02:06.917Z,10.89
2022-11-18T03:07:11.407Z,11.04
2022-11-18T03:12:17.559Z,10.67
2022-11-18T03:17:23.412Z,10.48
2022-11-18T03:22:27.857Z,10.88
2022-11-18T03:27:31.313Z,10.85
2022-11-18T03:32:37.268Z,10.91
2022-11-18T03:37:39.036Z,10.75
2022-11-18T03:42:41.598Z,10.54
2022-11-18T03:47:46.178Z,10.38
2022-11-18T03:52:48.236Z,10.58
2022-11-18T03:57:52.054Z,10.82
2022-11-18T04:02:55.153Z,10.64
2022-11-18T04:07:58.437Z,10.53
2022-11-18T04:13:06.117Z,10.76
2022-11-18T04:18:10.009Z,10.56
2022-11-18T04:23:11.810Z,10.60
2022-11-18T04:28:13.531Z,10.50
2022-11-18T04:33:16.996Z,10.91
2022-11-18T04:38:21.950Z,10.94
2022-11-18T04:43:24.114Z,10.44
2022-11-18T04:48:27.301Z,10.70
2022-11-18T04:53:29.016Z,10.72
2022-11-18T04:58:30.772Z,10.38
2022-11-18T05:03:33.836Z,10.43
2022-11-18T05:08:35.664Z,10.46
2022-11-18T05:13:37.438Z,10.22
2022-11-18T05:18:40.531Z,10.15
2022-11-18T05:23:42.296Z,10.18
2022-11-18T05:28:44.034Z,9.78
2022-11-18T05:33:47.124Z,9.66
2022-11-18T05:38:49.040Z,9.86
2022-11-18T05:43:50.901Z,10.01
2022-11-18T05:48:54.038Z,9.62
2022-11-18T05:53:55.975Z,9.81
2022-11-18T05:58:57.747Z,9.71
2022-11-18T06:04:01.012Z,10.00
2022-11-18T06:09:04.119Z,9.99
2022-11-18T06:14:07.270Z,10.04
2022-11-18T06:19:10.369Z,9.93
2022-11-18T06:24:12.204Z,9.80
2022-11-18T06:29:14.749Z,9.70
2022-11-18T06:34:18.060Z,9.45
2022-11-18T06:39:20.126Z,9.37
2022-11-18T06:44:22.171Z,9.19
2022-11-18T06:49:25.866Z,9.42
2022-11-18T06:54:27.620Z,9.54
2022-11-18T06:59:29.330Z,9.32
2022-11-18T07:04:34.598Z,9.57
2022-11-18T07:09:36.767Z,9.63
2022-11-18T07:14:38.525Z,9.20
2022-11-18T07:19:41.609Z,9.27
2022-11-18T07:24:43.367Z,9.35
2022-11-18T07:29:45.142Z,9.04
2022-11-18T07:34:48.269Z,9.07
2022-11-18T07:39:50.035Z,9.10
2022-11-18T07:44:51.826Z,8.95
2022-11-18T07:49:54.915Z,9.03
2022-11-18T07:54:56.659Z,8.74
2022-11-18T07:59:58.399Z,8.55
2022-11-18T08:05:01.545Z,8.79
2022-11-18T08:10:03.714Z,9.07
2022-11-18T08:15:06.171Z,9.16
2022-11-18T08:20:10.706Z,9.00
2022-11-18T08:25:12.811Z,9.01
2022-11-18T08:30:14.664Z,9.15
2022-11-18T08:35:17.712Z,8.92
2022-11-18T08:40:19.497Z,8.50
2022-11-18T08:45:21.362Z,8.66
2022-11-18T08:50:24.520Z,8.44
2022-11-18T08:55:26.295Z,8.58
2022-11-18T09:00:28.027Z,8.56
2022-11-18T09:05:31.140Z,8.86
2022-11-18T09:10:34.402Z,8.77
2022-11-18T09:15:36.155Z,8.78
2022-11-18T09:20:39.237Z,8.90
2022-11-18T09:25:40.950Z,9.09
2022-11-18T09:30:42.764Z,9.07
2022-11-18T09:35:45.848Z,8.87
2022-11-18T09:40:51.124Z,9.20
2022-11-18T09:45:54.829Z,8.93
2022-11-18T09:50:57.998Z,8.77
2022-11-18T09:55:59.757Z,8.95
2022-11-18T10:01:01.626Z,8.97
2022-11-18T10:06:11.120Z,8.76
2022-11-18T10:11:14.531Z,8.76
2022-11-18T10:16:28.002Z,9.00
2022-11-18T10:21:38.462Z,9.16
2022-11-18T10:26:41.105Z,8.81
2022-11-18T10:31:54.237Z,8.52
2022-11-18T10:37:02.512Z,9.05
2022-11-18T10:42:05.579Z,8.79
2022-11-18T10:47:16.434Z,8.71
2022-11-18T10:52:19.709Z,8.58
2022-11-18T10:57:22.072Z,8.79
2022-11-18T11:02:26.912Z,8.78
2022-11-18T11:07:32.762Z,9.29
2022-11-18T11:12:35.389Z,9.17
2022-11-18T11:17:39.068Z,9.36
2022-11-18T11:22:42.829Z,8.71
2022-11-18T11:33:22.464Z,8.20
2022-11-18T11:38:32.873Z,8.24
2022-11-18T11:43:37.574Z,8.47
2022-11-18T11:48:45.688Z,8.64
2022-11-18T11:54:02.352Z,8.87
2022-11-18T11:59:08.981Z,8.35
2022-11-18T12:04:19.115Z,8.51
2022-11-18T12:09:27.012Z,8.55
2022-11-18T12:14:33.718Z,8.91
2022-11-18T12:19:37.895Z,8.46
2022-11-18T12:24:42.360Z,8.82
2022-11-18T12:29:55.217Z,9.03
2022-11-18T12:35:00.960Z,9.05
2022-11-18T12:40:04.781Z,9.12
2022-11-18T12:45:39.610Z,9.11
2022-11-18T12:50:47.852Z,9.13
2022-11-18T12:55:50.985Z,9.30
2022-11-18T13:01:06.147Z,9.03
2022-11-18T13:06:14.684Z,9.07
2022-11-18T13:11:36.573Z,9.02
2022-11-18T13:16:57.177Z,8.65
2022-11-18T13:22:18.266Z,8.79
2022-11-18T13:27:28.396Z,8.81
2022-11-18T13:32:30.229Z,8.50
2022-11-18T13:37:34.025Z,8.27
2022-11-18T13:42:37.091Z,8.17
2022-11-18T13:47:41.117Z,8.05
2022-11-18T13:52:44.432Z,7.80
2022-11-18T13:57:48.332Z,7.76
2022-11-18T14:02:54.550Z,7.69
2022-11-18T14:08:01.634Z,7.69
2022-11-18T14:13:05.243Z,7.82
2022-11-18T14:18:17.169Z,7.74
2022-11-18T14:23:19.063Z,7.46
2022-11-18T14:28:23.480Z,7.72
2022-11-18T14:33:25.432Z,7.66
2022-11-18T14:38:52.363Z,7.93
2022-11-18T14:44:04.379Z,8.06
2022-11-18T14:49:09.472Z,7.80
2022-11-18T14:54:13.064Z,7.94
2022-11-18T14:59:17.054Z,7.98
2022-11-18T15:04:20.791Z,7.69
2022-11-18T15:09:23.051Z,7.71
2022-11-18T15:14:26.392Z,7.71
2022-11-18T15:19:28.337Z,7.77
2022-11-18T15:24:30.140Z,7.56
2022-11-18T15:29:33.965Z,7.39
2022-11-18T15:34:35.754Z,7.53
2022-11-18T15:39:37.624Z,7.53
2022-11-18T15:44:40.655Z,7.24
2022-11-18T15:49:45.194Z,7.44
2022-11-18T15:54:47.102Z,7.40
2022-11-18T15:59:50.150Z,7.60
2022-11-18T16:04:51.941Z,7.33
2022-11-18T16:10:12.159Z,7.54
2022-11-18T16:15:34.870Z,7.66
2022-11-18T16:20:36.939Z,7.26
2022-11-18T16:25:43.523Z,7.20
2022-11-18T16:31:07.615Z,7.31
2022-11-18T16:36:09.410Z,7.35
2022-11-18T16:41:30.012Z,7.38
2022-11-18T16:46:33.833Z,7.67
2022-11-18T16:51:35.739Z,7.86
2022-11-18T16:56:37.590Z,7.74
2022-11-18T17:01:40.834Z,7.63
2022-11-18T17:06:42.677Z,7.15
2022-11-18T17:11:44.581Z,7.36
2022-11-18T17:17:02.386Z,7.21
2022-11-18T17:22:14.863Z,7.24
2022-11-18T17:27:49.310Z,7.15
2022-11-18T17:32:56.026Z,7.19
2022-11-18T17:37:59.007Z,7.26
2022-11-18T17:43:05.047Z,7.57
2022-11-18T17:48:09.009Z,7.73
2022-11-18T17:53:20.897Z,7.52
2022-11-18T17:58:23.885Z,7.45
2022-11-18T18:03:26.969Z,7.12
2022-11-18T18:09:21.856Z,7.03
2022-11-18T18:17:13.542Z,6.55
2022-11-18T18:22:15.275Z,6.89
2022-11-18T18:27:17.031Z,6.78
2022-11-18T18:32:20.219Z,6.58
2022-11-18T18:37:22.102Z,6.37
2022-11-18T18:42:23.835Z,6.27
2022-11-18T18:47:26.949Z,6.35
2022-11-18T18:52:30.755Z,6.31
2022-11-18T18:57:32.503Z,6.45
2022-11-18T19:02:35.718Z,6.48
2022-11-18T19:07:37.640Z,6.50
2022-11-18T19:12:52.218Z,6.29
2022-11-18T19:17:55.370Z,6.35
2022-11-18T19:22:59.170Z,6.07
2022-11-18T19:28:00.898Z,6.07
2022-11-18T19:33:04.318Z,5.88
2022-11-18T19:38:06.079Z,5.57
2022-11-18T19:43:07.794Z,5.79
2022-11-18T19:48:10.889Z,5.82
2022-11-18T19:53:31.228Z,5.79
2022-11-18T19:58:33.229Z,5.78
2022-11-18T20:03:36.405Z,5.67
2022-11-18T20:08:38.765Z,5.65
2022-11-18T20:13:40.858Z,6.03
2022-11-18T20:18:44.552Z,5.89
2022-11-18T20:23:46.458Z,5.35
2022-11-18T20:28:53.016Z,5.48
2022-11-18T20:34:00.229Z,5.49
2022-11-18T20:39:03.563Z,5.60
2022-11-18T20:44:05.743Z,5.32
2022-11-18T20:49:09.005Z,5.42
2022-11-18T20:54:10.865Z,5.63
2022-11-18T20:59:12.815Z,5.65
2022-11-18T21:04:15.928Z,5.47
2022-11-18T21:09:17.847Z,5.54
2022-11-18T21:14:25.571Z,5.49
2022-11-18T21:19:29.082Z,5.31
2022-11-18T21:24:31.787Z,5.42
2022-11-18T21:29:33.572Z,5.38
2022-11-18T21:34:36.731Z,5.21
2022-11-18T21:39:38.499Z,5.11
2022-11-18T21:44:40.240Z,5.12
2022-11-18T21:49:43.296Z,4.89
2022-11-18T21:54:45.066Z,4.87
2022-11-18T21:59:46.945Z,4.69
2022-11-18T22:04:53.062Z,4.69
2022-11-18T22:09:55.288Z,4.76
2022-11-18T22:14:57.161Z,4.92
2022-11-18T22:20:00.329Z,4.63
2022-11-18T22:25:02.096Z,4.77
2022-11-18T22:30:04.884Z,4.63
2022-11-18T22:35:09.418Z,4.54
2022-11-18T22:40:12.220Z,4.15
2022-11-18T22:45:14.150Z,4.24
2022-11-18T22:50:17.475Z,4.25
2022-11-18T22:55:19.233Z,4.15
2022-11-18T23:00:21.142Z,3.87
2022-11-18T23:05:24.277Z,4.00
2022-11-18T23:10:26.024Z,3.84
2022-11-18T23:15:27.992Z,4.37
2022-11-18T23:20:31.056Z,4.34
2022-11-18T23:25:32.866Z,3.97
2022-11-18T23:30:34.610Z,4.05
2022-11-18T23:35:37.754Z,4.30
2022-11-18T23:40:39.455Z,4.15
2022-11-18T23:45:41.915Z,4.18
2022-11-18T23:50:52.318Z,4.01
2022-11-18T23:55:54.073Z,4.23
